createdAt,value
2022-10-26T06:17:54.331Z,8.70
2022-10-26T06:20:51.731Z,9.45
2022-10-26T06:23:45.311Z,10.10
2022-10-26T06:26:36.823Z,9.07
2022-10-26T06:29:28.258Z,9.30
2022-10-26T06:32:06.158Z,9.37
2022-10-26T06:34:51.051Z,9.10
2022-10-26T06:37:29.447Z,9.27
2022-10-26T06:40:07.953Z,8.57
2022-10-26T06:42:46.852Z,9.10
2022-10-26T06:45:25.911Z,8.57
2022-10-26T06:48:10.973Z,9.60
2022-10-26T06:50:56.725Z,9.33
2022-10-26T06:56:18.308Z,8.55
2022-10-26T06:59:02.320Z,8.80
2022-10-26T07:01:41.742Z,11.93
2022-10-26T07:04:19.152Z,9.53
2022-10-26T07:06:59.270Z,8.00
2022-10-26T07:09:36.583Z,7.93
2022-10-26T07:12:13.465Z,7.32
2022-10-26T07:14:50.975Z,7.00
2022-10-26T07:17:28.765Z,6.53
2022-10-26T07:20:06.067Z,7.10
2022-10-26T07:22:46.160Z,6.70
2022-10-26T07:25:23.874Z,6.20
2022-10-26T07:28:02.221Z,5.30
2022-10-26T07:30:40.229Z,5.87
2022-10-26T07:33:18.138Z,5.90
2022-10-26T07:35:56.567Z,5.63
2022-10-26T07:38:36.567Z,5.10
2022-10-26T07:41:14.548Z,5.20
2022-10-26T07:43:51.531Z,5.85
2022-10-26T07:46:30.029Z,4.78
2022-10-26T07:49:06.735Z,5.10
2022-10-26T07:51:44.084Z,4.45
2022-10-26T07:54:24.006Z,4.13
2022-10-26T07:57:01.547Z,4.53
2022-10-26T07:59:38.438Z,4.72
2022-10-26T08:02:15.672Z,4.75
2022-10-26T08:04:53.194Z,4.28
2022-10-26T08:07:30.419Z,4.85
2022-10-26T08:10:11.303Z,4.20
2022-10-26T08:12:48.538Z,4.57
2022-10-26T08:15:25.582Z,4.13
2022-10-26T08:18:02.704Z,4.10
2022-10-26T08:20:39.648Z,4.13
2022-10-26T08:23:16.713Z,4.40
2022-10-26T08:26:00.968Z,4.25
2022-10-26T08:28:38.223Z,4.18
2022-10-26T08:31:14.975Z,3.50
2022-10-26T08:33:52.245Z,4.10
2022-10-26T08:36:31.262Z,4.05
2022-10-26T08:39:08.560Z,4.32
2022-10-26T08:41:53.856Z,3.90
2022-10-26T08:44:38.326Z,4.50
2022-10-26T08:47:24.111Z,4.30
2022-10-26T08:50:06.649Z,5.03
2022-10-26T08:52:51.669Z,3.63
2022-10-26T08:55:34.781Z,4.18
2022-10-26T08:58:19.706Z,3.72
2022-10-26T09:00:57.528Z,4.15
2022-10-26T09:03:34.675Z,3.88
2022-10-26T09:06:28.483Z,4.47
2022-10-26T09:09:11.612Z,5.22
2022-10-26T09:12:05.627Z,4.30
2022-10-26T09:14:57.217Z,4.60
2022-10-26T09:17:46.179Z,4.40
2022-10-26T09:21:01.150Z,4.35
2022-10-26T09:23:58.802Z,3.90
2022-10-26T09:26:42.443Z,5.20
2022-10-26T09:29:19.678Z,3.78
2022-10-26T09:32:03.353Z,3.33
2022-10-26T09:34:49.601Z,3.08
2022-10-26T09:37:31.813Z,3.53
2022-10-26T09:40:19.627Z,3.07
2022-10-26T09:43:01.431Z,4.10
2022-10-26T09:45:42.114Z,3.63
2022-10-26T09:48:30.796Z,3.90
2022-10-26T09:51:08.295Z,3.78
2022-10-26T09:53:45.076Z,3.30
2022-10-26T09:56:22.946Z,3.00
2022-10-26T09:59:04.966Z,2.88
2022-10-26T10:01:42.628Z,3.40
2022-10-26T10:04:26.774Z,3.20
2022-10-26T10:07:17.338Z,2.67
2022-10-26T10:10:12.538Z,2.13
2022-10-26T10:12:52.804Z,2.42
2022-10-26T10:15:30.224Z,2.70
2022-10-26T10:18:07.528Z,2.80
2022-10-26T10:20:59.718Z,2.55
2022-10-26T10:23:39.409Z,2.60
2022-10-26T10:26:16.240Z,2.60
2022-10-26T10:29:04.220Z,2.22
2022-10-26T10:31:41.071Z,2.72
2022-10-26T10:34:21.104Z,2.20
2022-10-26T10:37:01.295Z,2.40
2022-10-26T10:39:43.013Z,2.63
2022-10-26T10:42:24.580Z,2.13
2022-10-26T10:45:03.110Z,2.55
2022-10-26T10:47:43.163Z,2.30
2022-10-26T10:50:23.941Z,2.40
2022-10-26T10:53:25.757Z,3.65
2022-10-26T10:56:24.059Z,2.45
2022-10-26T10:59:28.063Z,2.15
2022-10-26T11:02:32.772Z,2.85
2022-10-26T11:05:27.488Z,2.28
2022-10-26T11:08:13.241Z,2.40
2022-10-26T11:11:01.471Z,2.30
2022-10-26T11:13:44.024Z,2.10
2022-10-26T11:16:26.947Z,1.95
2022-10-26T11:21:47.776Z,2.08
2022-10-26T11:24:30.249Z,2.25
2022-10-26T11:27:20.035Z,2.38
2022-10-26T11:30:05.801Z,2.60
2022-10-26T11:32:50.407Z,2.53
2022-10-26T11:35:32.682Z,2.47
2022-10-26T11:38:28.219Z,2.50
2022-10-26T11:41:22.864Z,2.00
2022-10-26T11:46:50.494Z,2.63
2022-10-26T11:49:36.037Z,2.40
2022-10-26T11:52:19.601Z,3.22
2022-10-26T11:55:00.836Z,2.50
2022-10-26T11:57:40.968Z,2.53
2022-10-26T12:00:25.214Z,3.03
2022-10-26T12:03:10.122Z,2.50
2022-10-26T12:05:52.099Z,3.03
2022-10-26T12:08:34.876Z,2.10
2022-10-26T12:11:31.056Z,2.63
2022-10-26T12:14:22.503Z,2.05
2022-10-26T12:17:11.542Z,2.20
2022-10-26T12:19:54.317Z,2.33
2022-10-26T12:22:36.231Z,2.17
2022-10-26T12:25:25.688Z,1.77
2022-10-26T12:28:03.181Z,2.28
2022-10-26T12:30:40.886Z,1.60
2022-10-26T12:33:52.072Z,1.67
2022-10-26T12:37:13.575Z,1.65
2022-10-26T12:39:50.275Z,1.77
2022-10-26T12:42:34.486Z,1.80
2022-10-26T12:45:25.770Z,1.88
2022-10-26T12:48:15.639Z,1.70
2022-10-26T12:51:47.928Z,1.55
2022-10-26T12:54:40.472Z,1.95
2022-10-26T12:57:28.138Z,1.70
2022-10-26T13:00:09.322Z,1.80
2022-10-26T13:03:04.982Z,1.60
2022-10-26T13:06:26.986Z,2.20
2022-10-26T13:09:20.009Z,1.77
2022-10-26T13:12:01.143Z,1.90
2022-10-26T13:14:42.361Z,1.67
2022-10-26T13:17:32.194Z,1.33
2022-10-26T13:20:20.858Z,1.50
2022-10-26T13:22:58.594Z,1.55
2022-10-26T13:25:39.673Z,2.03
2022-10-26T13:28:37.040Z,2.00
2022-10-26T13:31:59.660Z,1.80
2022-10-26T13:34:37.868Z,1.67
2022-10-26T13:37:24.839Z,1.60
2022-10-26T13:40:04.068Z,2.10
2022-10-26T13:42:52.954Z,1.83
2022-10-26T13:45:34.478Z,1.88
2022-10-26T13:48:20.454Z,2.13
2022-10-26T13:51:01.956Z,1.90
2022-10-26T13:53:47.147Z,2.05
2022-10-26T13:56:36.531Z,2.65
2022-10-26T14:02:27.060Z,1.95
2022-10-26T14:05:08.050Z,2.40
2022-10-26T14:07:51.443Z,2.10
2022-10-26T14:10:36.507Z,2.20
2022-10-26T14:13:19.623Z,1.85
2022-10-26T14:16:02.611Z,2.08
2022-10-26T14:21:22.729Z,2.13
2022-10-26T14:24:08.111Z,2.15
2022-10-26T14:26:46.188Z,2.28
2022-10-26T14:29:27.918Z,2.05
2022-10-26T14:32:26.363Z,2.03
2022-10-26T14:35:04.590Z,2.20
2022-10-26T14:37:49.607Z,2.40
2022-10-26T14:40:32.981Z,2.63
2022-10-26T14:43:13.516Z,2.47
2022-10-26T14:45:55.940Z,2.75
2022-10-26T14:48:40.330Z,2.43
2022-10-26T14:51:24.159Z,3.40
2022-10-26T14:54:05.733Z,3.25
2022-10-26T14:56:45.732Z,2.85
2022-10-26T14:59:30.516Z,2.70
2022-10-26T15:02:25.339Z,3.35
2022-10-26T15:05:24.386Z,3.70
2022-10-26T15:08:06.231Z,3.33
2022-10-26T15:11:11.456Z,3.45
2022-10-26T15:13:52.255Z,3.17
2022-10-26T15:16:35.543Z,3.10
2022-10-26T15:19:24.760Z,3.65
2022-10-26T15:22:07.437Z,3.50
2022-10-26T15:24:46.405Z,3.35
2022-10-26T15:27:23.584Z,4.13
2022-10-26T15:30:22.907Z,3.38
2022-10-26T15:33:15.565Z,4.05
2022-10-26T15:36:09.398Z,3.63
2022-10-26T15:38:52.308Z,3.92
2022-10-26T15:41:34.148Z,3.47
2022-10-26T15:44:20.600Z,3.25
2022-10-26T15:47:08.903Z,3.45
2022-10-26T15:49:48.394Z,3.60
2022-10-26T15:52:28.966Z,2.95
2022-10-26T15:55:11.194Z,3.20
2022-10-26T15:57:51.210Z,3.78
2022-10-26T16:00:30.516Z,3.50
2022-10-26T16:03:09.952Z,3.08
2022-10-26T16:05:50.901Z,3.03
2022-10-26T16:08:34.057Z,3.10
2022-10-26T16:11:16.123Z,3.70
2022-10-26T16:13:58.339Z,3.63
2022-10-26T16:16:42.191Z,3.28
2022-10-26T16:19:31.192Z,3.85
2022-10-26T16:22:09.596Z,4.60
2022-10-26T16:24:46.773Z,4.63
2022-10-26T16:27:26.647Z,5.00
2022-10-26T16:30:03.975Z,5.25
2022-10-26T16:32:45.943Z,4.18
2022-10-26T16:35:25.410Z,4.53
2022-10-26T16:38:07.300Z,4.30
2022-10-26T16:40:51.558Z,4.53
2022-10-26T16:43:39.971Z,4.47
2022-10-26T16:46:21.624Z,4.75
2022-10-26T16:48:58.896Z,6.47
2022-10-26T16:51:37.472Z,6.88
2022-10-26T16:54:18.174Z,6.25
2022-10-26T16:56:56.216Z,8.45
2022-10-26T16:59:38.040Z,9.65
2022-10-26T17:02:19.720Z,8.80
2022-10-26T17:05:02.735Z,8.50
2022-10-26T17:07:44.148Z,7.15
2022-10-26T17:10:23.311Z,7.55
2022-10-26T17:13:04.691Z,9.00
2022-10-26T17:15:46.269Z,9.32
2022-10-26T17:18:25.914Z,11.27
2022-10-26T17:21:03.805Z,10.50
2022-10-26T17:23:42.578Z,11.52
2022-10-26T17:26:22.370Z,12.60
2022-10-26T17:29:02.770Z,12.07
2022-10-26T17:31:44.149Z,12.45
2022-10-26T17:34:23.247Z,12.20
2022-10-26T17:37:00.289Z,15.43
2022-10-26T17:39:38.143Z,12.68
2022-10-26T17:42:15.767Z,14.13
2022-10-26T17:44:54.013Z,12.35
2022-10-26T17:47:34.610Z,11.90
2022-10-26T17:50:13.550Z,13.07
2022-10-26T17:52:51.527Z,19.40
2022-10-26T17:55:30.592Z,17.58
2022-10-26T17:58:09.221Z,15.80
2022-10-26T18:00:54.371Z,14.90
2022-10-26T18:03:35.760Z,14.37
2022-10-26T18:06:14.424Z,14.65
2022-10-26T18:08:52.211Z,18.35
2022-10-26T18:14:28.776Z,28.95
2022-10-26T18:17:07.337Z,27.92
2022-10-26T18:19:51.607Z,23.47
2022-10-26T18:22:30.143Z,22.10
2022-10-26T18:25:14.183Z,18.88
2022-10-26T18:27:55.646Z,20.60
2022-10-26T18:30:33.435Z,19.03
2022-10-26T18:33:13.245Z,17.90
2022-10-26T18:35:53.268Z,16.43
2022-10-26T18:38:33.357Z,12.97
2022-10-26T18:41:12.252Z,12.50
2022-10-26T18:43:57.418Z,12.00
2022-10-26T18:46:36.947Z,11.13
2022-10-26T18:49:17.476Z,10.80
2022-10-26T18:52:00.673Z,10.63
2022-10-26T18:54:39.398Z,9.87
2022-10-26T18:57:16.779Z,10.00
2022-10-26T18:59:55.187Z,11.13
2022-10-26T19:02:33.407Z,10.77
2022-10-26T19:05:12.764Z,10.33
2022-10-26T19:07:54.190Z,11.43
2022-10-26T19:13:31.335Z,11.20
2022-10-26T19:16:33.245Z,11.10
2022-10-26T19:19:14.753Z,11.07
2022-10-26T19:21:54.315Z,11.60
2022-10-26T19:24:39.456Z,11.53
2022-10-26T19:27:20.508Z,10.97
2022-10-26T19:30:05.634Z,11.77
2022-10-26T19:32:47.319Z,11.70
2022-10-26T19:35:28.396Z,12.30
2022-10-26T19:38:08.919Z,12.73
2022-10-26T19:40:49.849Z,12.80
2022-10-26T19:43:35.642Z,12.60
2022-10-26T19:46:17.236Z,12.00
